^^
Saratoga-Weather Station Historical Data
Daily Summary for September 6, 2021 Units:  English    Metric   Both
Daily Weekly Monthly Yearly Custom
  High: Low: Average:
Temperature: 70.3 °F 59.2 °F 64 °F
Dew Point: 62.1 °F 54.7 °F 59 °F
Humidity: 97% 59% 85%
Wind Speed: 13mph 0mph 1.6mph
Wind Gust: 16mph - -
Wind- - SSW
Pressure: 29.8 in 29.7 in -
Precipitation: 0.71 in    
Historical Graphs
 
 
Tabular Data for September 6, 2021
Time Temperature Dew Point Pressure Wind Wind Speed Wind Gust Humidity Rainfall Rate (Hourly) solar
00:03 62.6 °F 60.6 °F 29.8 in Calm     93% 0 in 0 W/m2
00:08 62.4 °F 60.4 °F 29.8 in Calm     93% 0 in 0 W/m2
00:13 62.4 °F 60.4 °F 29.8 in Calm     93% 0 in 0 W/m2
00:18 62.4 °F 60.4 °F 29.8 in Calm     93% 0 in 0 W/m2
00:23 62.2 °F 60.3 °F 29.8 in Calm     93% 0 in 0 W/m2
00:28 62.2 °F 60.3 °F 29.7 in Calm     93% 0 in 0 W/m2
00:33 62.1 °F 60.1 °F 29.7 in Calm     93% 0 in 0 W/m2
00:38 62.1 °F 60.3 °F 29.7 in Calm     94% 0 in 0 W/m2
00:43 62.1 °F 60.3 °F 29.7 in Calm     94% 0 in 0 W/m2
00:48 62.1 °F 60.3 °F 29.7 in Calm     94% 0 in 0 W/m2
00:53 62.1 °F 60.3 °F 29.7 in Calm     94% 0 in 0 W/m2
00:58 61.9 °F 60.1 °F 29.7 in Calm     94% 0 in 0 W/m2
01:03 61.9 °F 60.1 °F 29.7 in Calm     94% 0 in 0 W/m2
01:08 61.7 °F 59.9 °F 29.7 in Calm     94% 0 in 0 W/m2
01:13 61.5 °F 59.7 °F 29.7 in Calm     94% 0 in 0 W/m2
01:18 61.3 °F 59.5 °F 29.7 in Calm     94% 0 in 0 W/m2
01:23 61.3 °F 59.5 °F 29.7 in Calm     94% 0 in 0 W/m2
01:28 61.3 °F 59.5 °F 29.7 in Calm     94% 0 in 0 W/m2
01:33 61.3 °F 59.5 °F 29.7 in Calm     94% 0 in 0 W/m2
01:38 61.2 °F 59.7 °F 29.7 in Calm     95% 0 in 0 W/m2
01:43 61.2 °F 59.4 °F 29.7 in Calm     94% 0 in 0 W/m2
01:49 61 °F 59.5 °F 29.7 in Calm     95% 0 in 0 W/m2
01:54 60.6 °F 59.2 °F 29.7 in Calm     95% 0 in 0 W/m2
01:59 60.6 °F 58.8 °F 29.7 in Calm     94% 0 in 0 W/m2
02:04 60.4 °F 59 °F 29.7 in Calm     95% 0 in 0 W/m2
02:09 60.4 °F 59 °F 29.7 in WNW 0.9 mph 1 mph 95% 0 in 0 W/m2
02:14 60.4 °F 59 °F 29.7 in Calm     95% 0 in 0 W/m2
02:19 60.3 °F 58.8 °F 29.7 in Calm     95% 0 in 0 W/m2
02:24 60.3 °F 58.8 °F 29.7 in Calm     95% 0 in 0 W/m2
02:29 60.3 °F 58.8 °F 29.7 in Calm     95% 0 in 0 W/m2
02:34 60.1 °F 58.6 °F 29.7 in Calm     95% 0 in 0 W/m2
02:39 60.1 °F 58.6 °F 29.7 in Calm     95% 0 in 0 W/m2
02:44 60.1 °F 58.6 °F 29.7 in Calm     95% 0 in 0 W/m2
02:49 59.9 °F 58.5 °F 29.7 in Calm     95% 0 in 0 W/m2
02:54 59.9 °F 58.5 °F 29.7 in Calm     95% 0 in 0 W/m2
02:59 59.7 °F 58.3 °F 29.7 in Calm     95% 0 in 0 W/m2
03:04 59.7 °F 58.6 °F 29.7 in Calm     96% 0 in 0 W/m2
03:09 59.5 °F 58.1 °F 29.7 in Calm     95% 0 in 0 W/m2
03:14 59.5 °F 58.1 °F 29.7 in Calm     95% 0 in 0 W/m2
03:19 59.5 °F 58.1 °F 29.7 in Calm     95% 0 in 0 W/m2
03:24 59.5 °F 58.5 °F 29.7 in Calm     96% 0 in 0 W/m2
03:29 59.5 °F 58.5 °F 29.7 in Calm     96% 0 in 0 W/m2
03:34 59.5 °F 58.5 °F 29.7 in Calm     96% 0 in 0 W/m2
03:39 59.5 °F 58.5 °F 29.7 in Calm     96% 0 in 0 W/m2
03:44 59.5 °F 58.5 °F 29.7 in Calm     96% 0 in 0 W/m2
03:49 59.4 °F 58.3 °F 29.7 in Calm     96% 0 in 0 W/m2
03:54 59.4 °F 58.3 °F 29.7 in Calm     96% 0 in 0 W/m2
03:59 59.4 °F 58.3 °F 29.7 in Calm     96% 0 in 0 W/m2
04:04 59.4 °F 58.3 °F 29.7 in Calm     96% 0 in 0 W/m2
04:09 59.2 °F 58.1 °F 29.7 in Calm     96% 0 in 0 W/m2
04:14 59.2 °F 58.1 °F 29.7 in Calm     96% 0 in 0 W/m2
04:19 59.2 °F 58.1 °F 29.7 in Calm   2 mph 96% 0 in 0 W/m2
04:24 59.2 °F 58.1 °F 29.7 in Calm     96% 0 in 0 W/m2
04:29 59.2 °F 58.1 °F 29.7 in Calm   1 mph 96% 0 in 0 W/m2
04:34 59.4 °F 58.3 °F 29.7 in Calm   1 mph 96% 0 in 0 W/m2
04:39 59.4 °F 58.3 °F 29.7 in Calm     96% 0 in 0 W/m2
04:44 59.4 °F 58.3 °F 29.7 in Calm     96% 0 in 0 W/m2
04:49 59.4 °F 58.3 °F 29.7 in Calm     96% 0 in 0 W/m2
04:54 59.5 °F 58.5 °F 29.7 in Calm     96% 0 in 0 W/m2
04:59 59.5 °F 58.5 °F 29.7 in Calm   1 mph 96% 0 in 0 W/m2
05:04 59.7 °F 58.6 °F 29.7 in Calm   2 mph 96% 0 in 0 W/m2
05:09 59.7 °F 58.6 °F 29.7 in West 3 mph 3 mph 96% 0 in 0 W/m2
05:14 59.7 °F 58.6 °F 29.7 in Calm   2 mph 96% 0 in 0 W/m2
05:19 59.9 °F 58.8 °F 29.7 in West 3 mph 3 mph 96% 0 in 0 W/m2
05:24 60.1 °F 59.2 °F 29.7 in West 0.9 mph 1 mph 97% 0 in 0 W/m2
05:29 60.1 °F 59.2 °F 29.7 in Calm     97% 0.01 in 0 W/m2
05:35 60.1 °F 59.2 °F 29.7 in Calm     97% 0.02 in 0 W/m2
05:40 60.3 °F 59.4 °F 29.7 in Calm     97% 0.04 in 0 W/m2
05:45 60.4 °F 59.5 °F 29.7 in Calm     97% 0.06 in 0 W/m2
05:50 60.6 °F 59.7 °F 29.7 in Calm     97% 0.07 in 0 W/m2
05:55 60.6 °F 59.7 °F 29.7 in Calm     97% 0.09 in 0 W/m2
06:00 60.6 °F 59.7 °F 29.7 in Calm     97% 0.11 in 0 W/m2
06:05 60.8 °F 59.9 °F 29.7 in Calm     97% 0.13 in 0 W/m2
06:10 60.6 °F 59.7 °F 29.7 in Calm     97% 0.14 in 0 W/m2
06:15 60.6 °F 59.7 °F 29.7 in Calm     97% 0.15 in 5 W/m2
06:20 60.6 °F 59.7 °F 29.7 in Calm   2 mph 97% 0.15 in 7 W/m2
06:25 60.6 °F 59.7 °F 29.7 in Calm     97% 0.15 in 0 W/m2
06:30 60.6 °F 59.7 °F 29.7 in Calm   2 mph 97% 0.14 in 0 W/m2
06:35 60.8 °F 59.9 °F 29.7 in Calm     97% 0.13 in 5 W/m2
06:40 61 °F 60.1 °F 29.7 in NW 0.9 mph 3 mph 97% 0.13 in 0 W/m2
06:45 61.5 °F 60.6 °F 29.7 in West 6 mph 6 mph 97% 0.22 in 0 W/m2
06:50 61.9 °F 61 °F 29.7 in WNW 6.9 mph 8 mph 97% 0.33 in 0 W/m2
06:55 61.9 °F 61 °F 29.7 in West 0.9 mph 7 mph 97% 0.35 in 9 W/m2
07:00 61.5 °F 60.6 °F 29.7 in West 2.9 mph 6 mph 97% 0.34 in 12 W/m2
07:05 61.5 °F 60.4 °F 29.7 in West 2.9 mph 7 mph 96% 0.33 in 16 W/m2
07:10 61.5 °F 60.4 °F 29.7 in WNW 4 mph 4 mph 96% 0.31 in 18 W/m2
07:15 61.5 °F 60.4 °F 29.7 in NW 0.9 mph 4 mph 96% 0.31 in 25 W/m2
07:20 61.5 °F 60.4 °F 29.7 in Calm   2 mph 96% 0.31 in 16 W/m2
07:25 61.7 °F 60.6 °F 29.7 in Calm   1 mph 96% 0.31 in 16 W/m2
07:30 61.7 °F 60.6 °F 29.7 in WNW 0.9 mph 2 mph 96% 0.31 in 19 W/m2
07:35 61.9 °F 60.8 °F 29.7 in Calm     96% 0.31 in 9 W/m2
07:40 61.9 °F 60.8 °F 29.7 in North 0.9 mph 2 mph 96% 0.31 in 11 W/m2
07:45 61.9 °F 60.8 °F 29.7 in Calm   1 mph 96% 0.23 in 14 W/m2
07:50 61.9 °F 60.8 °F 29.7 in Calm   1 mph 96% 0.12 in 16 W/m2
07:55 61.9 °F 60.8 °F 29.7 in Calm   2 mph 96% 0.09 in 9 W/m2
08:00 61.9 °F 61 °F 29.7 in NE 2 mph 3 mph 97% 0.1 in 11 W/m2
08:05 61.9 °F 60.8 °F 29.7 in East 2 mph 2 mph 96% 0.12 in 11 W/m2
08:10 61.9 °F 60.8 °F 29.7 in Calm   2 mph 96% 0.15 in 12 W/m2
08:15 61.9 °F 60.8 °F 29.7 in Calm     96% 0.16 in 19 W/m2
08:20 61.9 °F 60.8 °F 29.7 in NE 0.9 mph 2 mph 96% 0.17 in 19 W/m2
08:25 61.9 °F 60.8 °F 29.7 in NE 0.9 mph 2 mph 96% 0.19 in 23 W/m2
08:30 61.9 °F 60.8 °F 29.7 in East 2 mph 3 mph 96% 0.19 in 16 W/m2
08:35 61.9 °F 60.8 °F 29.7 in ENE 2 mph 2 mph 96% 0.2 in 14 W/m2
08:40 61.9 °F 60.8 °F 29.7 in Calm   2 mph 96% 0.2 in 19 W/m2
08:45 61.9 °F 60.8 °F 29.7 in NE 2 mph 2 mph 96% 0.18 in 58 W/m2
08:50 62.1 °F 61.2 °F 29.7 in East 2 mph 2 mph 97% 0.17 in 84 W/m2
08:55 62.2 °F 61.3 °F 29.7 in NE 2 mph 2 mph 97% 0.16 in 132 W/m2
09:00 62.2 °F 61.3 °F 29.7 in NE 0.9 mph 2 mph 97% 0.14 in 111 W/m2
09:05 62.4 °F 61.5 °F 29.7 in ENE 2 mph 3 mph 97% 0.11 in 97 W/m2
09:10 62.6 °F 61.7 °F 29.7 in NE 0.9 mph 2 mph 97% 0.09 in 69 W/m2
09:15 62.4 °F 61.5 °F 29.7 in ENE 2 mph 3 mph 97% 0.08 in 76 W/m2
09:20 62.6 °F 61.7 °F 29.7 in East 0.9 mph 2 mph 97% 0.06 in 105 W/m2
09:25 62.8 °F 61.9 °F 29.7 in Calm   1 mph 97% 0.05 in 97 W/m2
09:30 62.6 °F 61.7 °F 29.7 in Calm   3 mph 97% 0.04 in 74 W/m2
09:35 62.4 °F 61.5 °F 29.8 in Calm   3 mph 97% 0.03 in 60 W/m2
09:40 62.4 °F 61.5 °F 29.8 in Calm   3 mph 97% 0.02 in 58 W/m2
09:45 62.4 °F 61.3 °F 29.8 in Calm   3 mph 96% 0.02 in 70 W/m2
09:50 62.4 °F 61.3 °F 29.8 in ENE 0.9 mph 5 mph 96% 0.02 in 79 W/m2
09:55 62.2 °F 61.2 °F 29.8 in WNW 6 mph 7 mph 96% 0.02 in 79 W/m2
10:00 62.1 °F 60.6 °F 29.7 in ENE 2 mph 4 mph 95% 0.02 in 88 W/m2
10:05 62.2 °F 60.8 °F 29.8 in WSW 2.9 mph 6 mph 95% 0.02 in 128 W/m2
10:10 62.2 °F 60.8 °F 29.7 in Calm   2 mph 95% 0.02 in 128 W/m2
10:15 62.4 °F 61 °F 29.8 in ENE 0.9 mph 6 mph 95% 0.02 in 123 W/m2
10:20 62.4 °F 60.6 °F 29.8 in NNE 0.9 mph 4 mph 94% 0.02 in 139 W/m2
10:25 62.8 °F 61 °F 29.8 in WNW 2.9 mph 4 mph 94% 0.02 in 88 W/m2
10:30 62.8 °F 61 °F 29.8 in Calm   2 mph 94% 0.02 in 88 W/m2
10:35 63 °F 61.2 °F 29.8 in NW 2 mph 4 mph 94% 0.02 in 163 W/m2
10:40 62.8 °F 60.8 °F 29.8 in NNW 4 mph 4 mph 93% 0.01 in 193 W/m2
10:45 62.8 °F 60.4 °F 29.8 in North 0.9 mph 3 mph 92% 0.01 in 206 W/m2
10:50 63 °F 60.6 °F 29.8 in NW 8.1 mph 9 mph 92% 0 in 211 W/m2
10:55 63 °F 59.9 °F 29.8 in NNW 2 mph 8 mph 90% 0 in 213 W/m2
11:00 63 °F 59.9 °F 29.8 in NNW 2 mph 9 mph 90% 0 in 251 W/m2
11:05 63 °F 59.9 °F 29.8 in WNW 2.9 mph 5 mph 90% 0 in 264 W/m2
11:10 63 °F 59.7 °F 29.8 in NW 0.9 mph 3 mph 89% 0 in 294 W/m2
11:15 63.1 °F 60.1 °F 29.8 in NW 2 mph 4 mph 90% 0 in 283 W/m2
11:20 63.3 °F 60.1 °F 29.8 in NNE 0.9 mph 5 mph 89% 0 in 274 W/m2
11:25 63.3 °F 60.3 °F 29.8 in NNE 2 mph 3 mph 90% 0 in 403 W/m2
11:30 63.7 °F 60.4 °F 29.8 in North 4 mph 5 mph 89% 0 in 350 W/m2
11:35 63.9 °F 60.6 °F 29.8 in ENE 0.9 mph 3 mph 89% 0 in 334 W/m2
11:40 64.2 °F 61 °F 29.8 in West 2 mph 3 mph 89% 0 in 526 W/m2
11:45 64.6 °F 61.3 °F 29.8 in WSW 4 mph 7 mph 89% 0 in 541 W/m2
11:50 64.9 °F 61 °F 29.8 in WSW 0.9 mph 7 mph 87% 0 in 1069 W/m2
11:56 65.5 °F 61.2 °F 29.8 in NNE 2 mph 9 mph 86% 0 in 912 W/m2
12:01 66.4 °F 62.1 °F 29.8 in ENE 4 mph 4 mph 86% 0 in 946 W/m2
12:06 66.7 °F 61.3 °F 29.8 in NW 6.9 mph 7 mph 83% 0 in 904 W/m2
12:11 66.9 °F 61.2 °F 29.8 in North 2 mph 12 mph 82% 0 in 918 W/m2
12:16 67.3 °F 61.2 °F 29.8 in Calm   7 mph 81% 0 in 1076 W/m2
12:21 67.5 °F 61.2 °F 29.8 in WNW 4.9 mph 6 mph 80% 0 in 1007 W/m2
12:26 67.6 °F 61.5 °F 29.8 in NW 4 mph 7 mph 81% 0 in 355 W/m2
12:31 67.6 °F 61.2 °F 29.8 in WNW 6.9 mph 11 mph 80% 0 in 276 W/m2
12:36 67.5 °F 61.2 °F 29.8 in WSW 4 mph 6 mph 80% 0 in 225 W/m2
12:41 67.1 °F 60.8 °F 29.8 in NW 4 mph 5 mph 80% 0 in 1065 W/m2
12:46 67.5 °F 60.8 °F 29.8 in NNW 2 mph 4 mph 79% 0 in 1014 W/m2
12:51 68.4 °F 60.8 °F 29.8 in NW 6 mph 12 mph 77% 0 in 1146 W/m2
12:56 68.5 °F 60.3 °F 29.8 in WSW 8.1 mph 8 mph 75% 0 in 1109 W/m2
13:01 68.5 °F 59.9 °F 29.8 in WNW 8.9 mph 12 mph 74% 0 in 1027 W/m2
13:06 68.7 °F 59.7 °F 29.8 in SSE 4 mph 7 mph 73% 0 in 323 W/m2
13:11 68.7 °F 59 °F 29.8 in NNE 4 mph 13 mph 71% 0 in 575 W/m2
13:16 68.7 °F 59 °F 29.8 in ESE 2.9 mph 9 mph 71% 0 in 654 W/m2
13:21 68.7 °F 58.5 °F 29.8 in WNW 0.9 mph 13 mph 70% 0 in 469 W/m2
13:26 68.5 °F 59.2 °F 29.8 in NW 2.9 mph 11 mph 72% 0 in 471 W/m2
13:31 68.5 °F 59.2 °F 29.8 in North 10.1 mph 10 mph 72% 0 in 427 W/m2
13:36 68.2 °F 58.1 °F 29.8 in East 2.9 mph 5 mph 70% 0 in 545 W/m2
13:41 68.4 °F 58.3 °F 29.8 in WSW 8.9 mph 15 mph 70% 0 in 367 W/m2
13:46 68.2 °F 57.6 °F 29.8 in North 2 mph 9 mph 69% 0 in 473 W/m2
13:51 68.2 °F 58.1 °F 29.8 in NNW 13 mph 16 mph 70% 0 in 520 W/m2
13:56 68.2 °F 58.1 °F 29.8 in Calm   5 mph 70% 0 in 568 W/m2
14:01 68.4 °F 57.7 °F 29.8 in Calm   16 mph 69% 0 in 499 W/m2
14:06 68.4 °F 56.5 °F 29.8 in West 4 mph 9 mph 66% 0 in 536 W/m2
14:12 68.5 °F 57.6 °F 29.8 in WSW 2 mph 7 mph 68% 0 in 404 W/m2
14:17 68.4 °F 56.5 °F 29.8 in North 2 mph 3 mph 66% 0 in 506 W/m2
14:22 68.4 °F 57 °F 29.8 in SSW 2.9 mph 8 mph 67% 0 in 455 W/m2
14:27 68.4 °F 56.5 °F 29.8 in NNW 2 mph 4 mph 66% 0 in 374 W/m2
14:32 68.4 °F 57 °F 29.8 in East 2 mph 5 mph 67% 0 in 371 W/m2
14:37 68.7 °F 56.8 °F 29.8 in WNW 4 mph 8 mph 66% 0 in 512 W/m2
14:42 68.9 °F 57.6 °F 29.8 in North 6.9 mph 7 mph 67% 0 in 508 W/m2
14:47 69.1 °F 56.8 °F 29.8 in NNW 2 mph 5 mph 65% 0 in 454 W/m2
14:52 69.1 °F 57.2 °F 29.8 in NW 2 mph 11 mph 66% 0 in 529 W/m2
14:57 69.1 °F 57.2 °F 29.8 in West 2.9 mph 8 mph 66% 0 in 410 W/m2
15:02 69.1 °F 57.7 °F 29.8 in SW 0.9 mph 9 mph 67% 0 in 371 W/m2
15:07 69.1 °F 57.7 °F 29.8 in East 4 mph 4 mph 67% 0 in 404 W/m2
15:12 69.1 °F 57.2 °F 29.8 in ENE 4 mph 4 mph 66% 0 in 373 W/m2
15:17 69.1 °F 56.8 °F 29.8 in SW 2.9 mph 5 mph 65% 0 in 410 W/m2
15:22 69.1 °F 56.8 °F 29.8 in West 6 mph 10 mph 65% 0 in 492 W/m2
15:27 68.9 °F 57 °F 29.8 in NNW 8.9 mph 11 mph 66% 0 in 566 W/m2
15:32 69.1 °F 56.8 °F 29.8 in ESE 2 mph 3 mph 65% 0 in 490 W/m2
15:37 69.3 °F 57.4 °F 29.8 in WNW 0.9 mph 11 mph 66% 0 in 323 W/m2
15:42 69.1 °F 57.2 °F 29.8 in NNW 2 mph 12 mph 66% 0 in 318 W/m2
15:47 69.1 °F 58.5 °F 29.8 in NW 0.9 mph 6 mph 69% 0 in 371 W/m2
15:52 68.9 °F 58.3 °F 29.8 in WNW 0.9 mph 9 mph 69% 0 in 376 W/m2
15:57 69.1 °F 58.8 °F 29.8 in NNW 2.9 mph 6 mph 70% 0 in 388 W/m2
16:02 69.3 °F 58.6 °F 29.8 in WSW 2.9 mph 8 mph 69% 0 in 411 W/m2
16:07 69.1 °F 58.5 °F 29.8 in NNW 4 mph 5 mph 69% 0 in 552 W/m2
16:12 69.1 °F 58.5 °F 29.8 in NNE 2 mph 9 mph 69% 0 in 436 W/m2
16:17 69.1 °F 58.1 °F 29.8 in East 2 mph 7 mph 68% 0 in 406 W/m2
16:22 69.1 °F 58.1 °F 29.8 in NW 0.9 mph 4 mph 68% 0 in 339 W/m2
16:27 69.3 °F 57.9 °F 29.8 in ENE 2.9 mph 5 mph 67% 0 in 520 W/m2
16:32 69.3 °F 55.2 °F 29.8 in WNW 6.9 mph 11 mph 61% 0 in 417 W/m2
16:37 69.3 °F 55.2 °F 29.8 in North 6 mph 6 mph 61% 0 in 471 W/m2
16:42 69.4 °F 55.9 °F 29.8 in West 4 mph 7 mph 62% 0 in 501 W/m2
16:47 69.4 °F 55.9 °F 29.8 in North 0.9 mph 3 mph 62% 0 in 561 W/m2
16:52 69.8 °F 55.8 °F 29.8 in NNE 2 mph 8 mph 61% 0 in 563 W/m2
16:57 70 °F 55.9 °F 29.8 in Calm   2 mph 61% 0 in 522 W/m2
17:02 70.3 °F 55.8 °F 29.8 in WNW 8.1 mph 8 mph 60% 0 in 445 W/m2
17:07 70.3 °F 55.4 °F 29.8 in NNE 2 mph 4 mph 59% 0 in 659 W/m2
17:12 70.3 °F 56.3 °F 29.8 in ENE 2 mph 6 mph 61% 0 in 292 W/m2
17:17 70.2 °F 55.6 °F 29.8 in SW 0.9 mph 6 mph 60% 0 in 297 W/m2
17:22 70 °F 55.4 °F 29.8 in NE 0.9 mph 4 mph 60% 0 in 304 W/m2
17:27 70 °F 56.3 °F 29.8 in NE 0.9 mph 2 mph 62% 0 in 276 W/m2
17:32 70 °F 55.9 °F 29.8 in South 2 mph 9 mph 61% 0 in 283 W/m2
17:37 69.6 °F 54.7 °F 29.8 in WSW 0.9 mph 4 mph 59% 0 in 253 W/m2
17:42 69.6 °F 55 °F 29.8 in Calm   9 mph 60% 0 in 274 W/m2
17:47 69.6 °F 55 °F 29.8 in Calm   2 mph 60% 0 in 213 W/m2
17:52 69.6 °F 55 °F 29.8 in West 2 mph 4 mph 60% 0 in 183 W/m2
17:57 69.4 °F 55.9 °F 29.8 in ESE 2 mph 4 mph 62% 0 in 171 W/m2
18:02 69.3 °F 57 °F 29.8 in SW 0.9 mph 2 mph 65% 0 in 162 W/m2
18:07 69.1 °F 55 °F 29.8 in SW 2 mph 5 mph 61% 0 in 160 W/m2
18:12 69.1 °F 57.2 °F 29.8 in Calm   1 mph 66% 0 in 158 W/m2
18:17 68.9 °F 56.3 °F 29.8 in Calm   1 mph 64% 0 in 169 W/m2
18:22 68.9 °F 57.9 °F 29.8 in NW 2.9 mph 3 mph 68% 0 in 125 W/m2
18:27 68.7 °F 57.7 °F 29.8 in Calm     68% 0 in 120 W/m2
18:32 68.7 °F 56.8 °F 29.8 in North 0.9 mph 1 mph 66% 0 in 120 W/m2
18:37 68.5 °F 57.6 °F 29.8 in Calm     68% 0 in 135 W/m2
18:42 68.7 °F 56.5 °F 29.8 in North 0.9 mph 1 mph 65% 0 in 186 W/m2
18:47 68.7 °F 56.8 °F 29.8 in Calm   2 mph 66% 0 in 109 W/m2
18:52 68.9 °F 57.9 °F 29.8 in NW 0.9 mph 2 mph 68% 0 in 114 W/m2
18:57 68.9 °F 57.6 °F 29.8 in Calm   1 mph 67% 0 in 118 W/m2
Juneau County Weather
Compliments of Weather Underground - 2 mb